sensor_id;sensor_type;location;lat;lon;timestamp;P1;durP1;ratioP1;P2;durP2;ratioP2
9467;SDS011;4772;52.382;9.752;2023-05-08T00:00:27;9.13;;;8.27;;
9467;SDS011;4772;52.382;9.752;2023-05-08T00:02:53;8.60;;;7.80;;
9467;SDS011;4772;52.382;9.752;2023-05-08T00:05:19;10.17;;;9.10;;
9467;SDS011;4772;52.382;9.752;2023-05-08T00:07:45;9.23;;;8.43;;
9467;SDS011;4772;52.382;9.752;2023-05-08T00:10:11;9.63;;;8.70;;
9467;SDS011;4772;52.382;9.752;2023-05-08T00:12:37;11.80;;;9.03;;
9467;SDS011;4772;52.382;9.752;2023-05-08T00:15:03;9.80;;;8.80;;
9467;SDS011;4772;52.382;9.752;2023-05-08T00:17:29;9.93;;;8.97;;
9467;SDS011;4772;52.382;9.752;2023-05-08T00:19:55;10.07;;;9.07;;
9467;SDS011;4772;52.382;9.752;2023-05-08T00:22:22;10.40;;;9.27;;
9467;SDS011;4772;52.382;9.752;2023-05-08T00:24:48;9.73;;;8.70;;
9467;SDS011;4772;52.382;9.752;2023-05-08T00:27:14;10.97;;;9.20;;
9467;SDS011;4772;52.382;9.752;2023-05-08T00:29:40;11.37;;;10.27;;
9467;SDS011;4772;52.382;9.752;2023-05-08T00:32:06;10.50;;;9.60;;
9467;SDS011;4772;52.382;9.752;2023-05-08T00:34:32;10.30;;;9.30;;
9467;SDS011;4772;52.382;9.752;2023-05-08T00:36:58;10.87;;;9.73;;
9467;SDS011;4772;52.382;9.752;2023-05-08T00:39:24;11.07;;;10.00;;
9467;SDS011;4772;52.382;9.752;2023-05-08T00:41:50;10.90;;;9.90;;
9467;SDS011;4772;52.382;9.752;2023-05-08T00:44:16;10.83;;;9.67;;
9467;SDS011;4772;52.382;9.752;2023-05-08T00:46:42;11.13;;;10.10;;
9467;SDS011;4772;52.382;9.752;2023-05-08T00:49:09;10.97;;;9.93;;
9467;SDS011;4772;52.382;9.752;2023-05-08T00:51:38;10.63;;;9.63;;
9467;SDS011;4772;52.382;9.752;2023-05-08T00:54:04;14.37;;;10.40;;
9467;SDS011;4772;52.382;9.752;2023-05-08T00:56:30;10.47;;;9.47;;
9467;SDS011;4772;52.382;9.752;2023-05-08T00:58:57;12.03;;;10.83;;
9467;SDS011;4772;52.382;9.752;2023-05-08T01:01:23;10.60;;;9.57;;
9467;SDS011;4772;52.382;9.752;2023-05-08T01:03:49;10.87;;;9.97;;
9467;SDS011;4772;52.382;9.752;2023-05-08T01:06:15;11.20;;;10.20;;
9467;SDS011;4772;52.382;9.752;2023-05-08T01:08:42;13.93;;;10.00;;
9467;SDS011;4772;52.382;9.752;2023-05-08T01:14:12;10.93;;;9.90;;
9467;SDS011;4772;52.382;9.752;2023-05-08T01:24:56;11.93;;;10.40;;
9467;SDS011;4772;52.382;9.752;2023-05-08T01:27:13;11.10;;;10.10;;
9467;SDS011;4772;52.382;9.752;2023-05-08T01:32:29;11.33;;;10.23;;
9467;SDS011;4772;52.382;9.752;2023-05-08T01:38:04;11.50;;;10.40;;
9467;SDS011;4772;52.382;9.752;2023-05-08T01:40:51;11.40;;;10.30;;
9467;SDS011;4772;52.382;9.752;2023-05-08T01:46:04;11.50;;;10.40;;
9467;SDS011;4772;52.382;9.752;2023-05-08T01:48:32;10.37;;;9.47;;
9467;SDS011;4772;52.382;9.752;2023-05-08T01:51:05;11.13;;;9.97;;
9467;SDS011;4772;52.382;9.752;2023-05-08T01:53:37;11.67;;;9.93;;
9467;SDS011;4772;52.382;9.752;2023-05-08T01:56:07;12.93;;;10.23;;
9467;SDS011;4772;52.382;9.752;2023-05-08T01:58:35;10.73;;;9.63;;
9467;SDS011;4772;52.382;9.752;2023-05-08T02:01:02;10.77;;;9.77;;
9467;SDS011;4772;52.382;9.752;2023-05-08T02:03:29;11.07;;;10.00;;
9467;SDS011;4772;52.382;9.752;2023-05-08T02:05:56;10.33;;;9.40;;
9467;SDS011;4772;52.382;9.752;2023-05-08T02:08:23;10.47;;;9.47;;
9467;SDS011;4772;52.382;9.752;2023-05-08T02:10:49;10.90;;;9.80;;
9467;SDS011;4772;52.382;9.752;2023-05-08T02:13:16;10.93;;;9.93;;
9467;SDS011;4772;52.382;9.752;2023-05-08T02:15:44;10.63;;;9.63;;
9467;SDS011;4772;52.382;9.752;2023-05-08T02:18:10;10.20;;;9.27;;
9467;SDS011;4772;52.382;9.752;2023-05-08T02:20:37;10.20;;;9.07;;
9467;SDS011;4772;52.382;9.752;2023-05-08T02:23:04;9.87;;;8.87;;
9467;SDS011;4772;52.382;9.752;2023-05-08T02:25:30;10.00;;;9.10;;
9467;SDS011;4772;52.382;9.752;2023-05-08T02:27:57;9.27;;;8.37;;
9467;SDS011;4772;52.382;9.752;2023-05-08T02:30:24;9.50;;;8.70;;
9467;SDS011;4772;52.382;9.752;2023-05-08T02:32:51;9.93;;;9.03;;
9467;SDS011;4772;52.382;9.752;2023-05-08T02:35:18;9.53;;;8.70;;
9467;SDS011;4772;52.382;9.752;2023-05-08T02:37:45;9.60;;;8.70;;
9467;SDS011;4772;52.382;9.752;2023-05-08T02:40:13;9.67;;;8.50;;
9467;SDS011;4772;52.382;9.752;2023-05-08T02:42:39;9.87;;;8.97;;
9467;SDS011;4772;52.382;9.752;2023-05-08T02:45:05;13.93;;;8.73;;
9467;SDS011;4772;52.382;9.752;2023-05-08T02:50:17;10.93;;;8.50;;
9467;SDS011;4772;52.382;9.752;2023-05-08T02:52:52;9.77;;;8.87;;
9467;SDS011;4772;52.382;9.752;2023-05-08T02:57:49;10.83;;;8.60;;
9467;SDS011;4772;52.382;9.752;2023-05-08T03:00:19;9.37;;;8.53;;
9467;SDS011;4772;52.382;9.752;2023-05-08T03:02:55;10.27;;;9.23;;
9467;SDS011;4772;52.382;9.752;2023-05-08T03:05:24;10.63;;;9.53;;
9467;SDS011;4772;52.382;9.752;2023-05-08T03:07:51;9.80;;;8.80;;
9467;SDS011;4772;52.382;9.752;2023-05-08T03:10:20;9.33;;;8.50;;
9467;SDS011;4772;52.382;9.752;2023-05-08T03:12:48;10.37;;;9.27;;
9467;SDS011;4772;52.382;9.752;2023-05-08T03:15:24;10.20;;;9.20;;
9467;SDS011;4772;52.382;9.752;2023-05-08T03:17:51;11.47;;;10.07;;
9467;SDS011;4772;52.382;9.752;2023-05-08T03:20:18;12.53;;;9.63;;
9467;SDS011;4772;52.382;9.752;2023-05-08T03:22:44;11.30;;;10.10;;
9467;SDS011;4772;52.382;9.752;2023-05-08T03:25:12;9.97;;;8.93;;
9467;SDS011;4772;52.382;9.752;2023-05-08T03:27:41;11.00;;;9.90;;
9467;SDS011;4772;52.382;9.752;2023-05-08T03:30:07;11.67;;;10.33;;
9467;SDS011;4772;52.382;9.752;2023-05-08T03:32:33;11.63;;;10.43;;
9467;SDS011;4772;52.382;9.752;2023-05-08T03:35:00;12.37;;;11.10;;
9467;SDS011;4772;52.382;9.752;2023-05-08T03:37:27;14.03;;;11.97;;
9467;SDS011;4772;52.382;9.752;2023-05-08T03:39:56;15.20;;;11.63;;
9467;SDS011;4772;52.382;9.752;2023-05-08T03:42:22;12.90;;;11.60;;
9467;SDS011;4772;52.382;9.752;2023-05-08T03:44:49;13.07;;;11.67;;
9467;SDS011;4772;52.382;9.752;2023-05-08T03:47:21;13.10;;;11.80;;
9467;SDS011;4772;52.382;9.752;2023-05-08T03:49:50;13.80;;;11.30;;
9467;SDS011;4772;52.382;9.752;2023-05-08T03:52:16;13.43;;;11.27;;
9467;SDS011;4772;52.382;9.752;2023-05-08T03:54:42;14.03;;;10.80;;
9467;SDS011;4772;52.382;9.752;2023-05-08T03:57:08;14.47;;;11.93;;
9467;SDS011;4772;52.382;9.752;2023-05-08T04:04:37;13.23;;;11.83;;
9467;SDS011;4772;52.382;9.752;2023-05-08T04:09:38;14.37;;;11.27;;
9467;SDS011;4772;52.382;9.752;2023-05-08T04:12:14;13.50;;;11.97;;
9467;SDS011;4772;52.382;9.752;2023-05-08T04:14:48;15.00;;;11.10;;
9467;SDS011;4772;52.382;9.752;2023-05-08T04:17:16;13.10;;;11.00;;
9467;SDS011;4772;52.382;9.752;2023-05-08T04:19:45;12.50;;;11.20;;
9467;SDS011;4772;52.382;9.752;2023-05-08T04:22:11;16.37;;;11.70;;
9467;SDS011;4772;52.382;9.752;2023-05-08T04:24:40;14.03;;;11.47;;
9467;SDS011;4772;52.382;9.752;2023-05-08T04:27:07;15.73;;;11.33;;
9467;SDS011;4772;52.382;9.752;2023-05-08T04:29:34;11.40;;;10.30;;
9467;SDS011;4772;52.382;9.752;2023-05-08T04:32:00;13.20;;;10.60;;
9467;SDS011;4772;52.382;9.752;2023-05-08T04:34:27;11.77;;;10.33;;
9467;SDS011;4772;52.382;9.752;2023-05-08T04:36:53;10.97;;;9.40;;
9467;SDS011;4772;52.382;9.752;2023-05-08T04:39:19;11.60;;;10.13;;
9467;SDS011;4772;52.382;9.752;2023-05-08T04:41:46;11.90;;;10.80;;
9467;SDS011;4772;52.382;9.752;2023-05-08T04:44:12;12.07;;;10.50;;
9467;SDS011;4772;52.382;9.752;2023-05-08T04:46:38;11.03;;;9.83;;
9467;SDS011;4772;52.382;9.752;2023-05-08T04:49:04;11.77;;;10.57;;
9467;SDS011;4772;52.382;9.752;2023-05-08T04:51:30;11.93;;;10.33;;
9467;SDS011;4772;52.382;9.752;2023-05-08T04:53:56;10.67;;;9.57;;
9467;SDS011;4772;52.382;9.752;2023-05-08T04:56:22;11.37;;;9.90;;
9467;SDS011;4772;52.382;9.752;2023-05-08T04:58:48;11.67;;;10.47;;
9467;SDS011;4772;52.382;9.752;2023-05-08T05:01:15;10.80;;;9.80;;
9467;SDS011;4772;52.382;9.752;2023-05-08T05:03:41;11.27;;;10.17;;
9467;SDS011;4772;52.382;9.752;2023-05-08T05:06:07;15.17;;;10.27;;
9467;SDS011;4772;52.382;9.752;2023-05-08T05:08:33;12.60;;;10.33;;
9467;SDS011;4772;52.382;9.752;2023-05-08T05:10:59;12.60;;;9.83;;
9467;SDS011;4772;52.382;9.752;2023-05-08T05:13:25;11.17;;;9.87;;
9467;SDS011;4772;52.382;9.752;2023-05-08T05:15:51;12.07;;;9.40;;
9467;SDS011;4772;52.382;9.752;2023-05-08T05:18:18;13.57;;;9.77;;
9467;SDS011;4772;52.382;9.752;2023-05-08T05:20:44;11.63;;;10.43;;
9467;SDS011;4772;52.382;9.752;2023-05-08T05:23:11;12.07;;;10.23;;
9467;SDS011;4772;52.382;9.752;2023-05-08T05:25:37;10.40;;;9.40;;
9467;SDS011;4772;52.382;9.752;2023-05-08T05:28:03;10.57;;;9.47;;
9467;SDS011;4772;52.382;9.752;2023-05-08T05:30:29;10.90;;;9.80;;
9467;SDS011;4772;52.382;9.752;2023-05-08T05:32:55;10.93;;;9.83;;
9467;SDS011;4772;52.382;9.752;2023-05-08T05:35:21;10.97;;;9.87;;
9467;SDS011;4772;52.382;9.752;2023-05-08T05:37:47;11.10;;;10.00;;
9467;SDS011;4772;52.382;9.752;2023-05-08T05:40:13;11.97;;;9.87;;
9467;SDS011;4772;52.382;9.752;2023-05-08T05:42:39;11.87;;;9.60;;
9467;SDS011;4772;52.382;9.752;2023-05-08T05:45:05;11.90;;;9.80;;
9467;SDS011;4772;52.382;9.752;2023-05-08T05:47:31;10.97;;;9.87;;
9467;SDS011;4772;52.382;9.752;2023-05-08T05:49:57;11.20;;;9.83;;
9467;SDS011;4772;52.382;9.752;2023-05-08T05:52:23;11.93;;;10.73;;
9467;SDS011;4772;52.382;9.752;2023-05-08T05:54:49;10.47;;;9.53;;
9467;SDS011;4772;52.382;9.752;2023-05-08T05:57:15;10.97;;;9.77;;
9467;SDS011;4772;52.382;9.752;2023-05-08T05:59:41;11.87;;;9.83;;
9467;SDS011;4772;52.382;9.752;2023-05-08T06:02:08;10.27;;;9.37;;
9467;SDS011;4772;52.382;9.752;2023-05-08T06:04:38;10.97;;;9.87;;
9467;SDS011;4772;52.382;9.752;2023-05-08T06:07:04;12.03;;;9.73;;
9467;SDS011;4772;52.382;9.752;2023-05-08T06:09:30;10.43;;;9.20;;
9467;SDS011;4772;52.382;9.752;2023-05-08T06:11:56;10.23;;;9.23;;
9467;SDS011;4772;52.382;9.752;2023-05-08T06:14:22;12.03;;;8.83;;
9467;SDS011;4772;52.382;9.752;2023-05-08T06:16:48;10.67;;;9.40;;
9467;SDS011;4772;52.382;9.752;2023-05-08T06:19:14;10.03;;;9.03;;
9467;SDS011;4772;52.382;9.752;2023-05-08T06:21:40;11.57;;;9.27;;
9467;SDS011;4772;52.382;9.752;2023-05-08T06:24:06;9.50;;;8.53;;
9467;SDS011;4772;52.382;9.752;2023-05-08T06:26:32;10.20;;;9.13;;
9467;SDS011;4772;52.382;9.752;2023-05-08T06:28:58;10.20;;;9.17;;
9467;SDS011;4772;52.382;9.752;2023-05-08T06:31:24;11.23;;;8.90;;
9467;SDS011;4772;52.382;9.752;2023-05-08T06:33:50;11.80;;;9.00;;
9467;SDS011;4772;52.382;9.752;2023-05-08T06:36:16;9.00;;;8.10;;
9467;SDS011;4772;52.382;9.752;2023-05-08T06:38:42;11.03;;;8.30;;
9467;SDS011;4772;52.382;9.752;2023-05-08T06:41:08;10.87;;;8.67;;
9467;SDS011;4772;52.382;9.752;2023-05-08T06:43:34;11.27;;;8.90;;
9467;SDS011;4772;52.382;9.752;2023-05-08T06:46:00;9.50;;;8.40;;
9467;SDS011;4772;52.382;9.752;2023-05-08T06:48:26;9.77;;;8.87;;
9467;SDS011;4772;52.382;9.752;2023-05-08T06:50:53;9.43;;;8.47;;
9467;SDS011;4772;52.382;9.752;2023-05-08T06:53:19;9.73;;;8.83;;
9467;SDS011;4772;52.382;9.752;2023-05-08T06:55:45;9.57;;;8.63;;
9467;SDS011;4772;52.382;9.752;2023-05-08T06:58:11;9.00;;;8.13;;
9467;SDS011;4772;52.382;9.752;2023-05-08T07:00:37;9.60;;;8.60;;
9467;SDS011;4772;52.382;9.752;2023-05-08T07:03:03;11.33;;;8.97;;
9467;SDS011;4772;52.382;9.752;2023-05-08T07:05:29;11.60;;;9.03;;
9467;SDS011;4772;52.382;9.752;2023-05-08T07:07:55;9.47;;;8.10;;
9467;SDS011;4772;52.382;9.752;2023-05-08T07:10:21;8.73;;;7.43;;
9467;SDS011;4772;52.382;9.752;2023-05-08T07:12:48;8.73;;;7.87;;
9467;SDS011;4772;52.382;9.752;2023-05-08T07:15:14;8.43;;;7.70;;
9467;SDS011;4772;52.382;9.752;2023-05-08T07:17:40;8.23;;;7.43;;
9467;SDS011;4772;52.382;9.752;2023-05-08T07:20:06;9.30;;;8.40;;
9467;SDS011;4772;52.382;9.752;2023-05-08T07:22:32;8.87;;;8.07;;
9467;SDS011;4772;52.382;9.752;2023-05-08T07:24:58;8.73;;;7.83;;
9467;SDS011;4772;52.382;9.752;2023-05-08T07:27:24;11.20;;;7.93;;
9467;SDS011;4772;52.382;9.752;2023-05-08T07:29:51;8.53;;;7.67;;
9467;SDS011;4772;52.382;9.752;2023-05-08T07:32:17;9.10;;;8.30;;
9467;SDS011;4772;52.382;9.752;2023-05-08T07:34:43;8.43;;;7.30;;
9467;SDS011;4772;52.382;9.752;2023-05-08T07:37:09;10.20;;;8.43;;
9467;SDS011;4772;52.382;9.752;2023-05-08T07:39:35;8.97;;;7.80;;
9467;SDS011;4772;52.382;9.752;2023-05-08T07:42:01;9.00;;;7.80;;
9467;SDS011;4772;52.382;9.752;2023-05-08T07:44:29;9.10;;;7.70;;
9467;SDS011;4772;52.382;9.752;2023-05-08T07:46:55;8.53;;;7.60;;
9467;SDS011;4772;52.382;9.752;2023-05-08T07:49:22;8.50;;;7.70;;
9467;SDS011;4772;52.382;9.752;2023-05-08T07:51:48;9.87;;;7.70;;
9467;SDS011;4772;52.382;9.752;2023-05-08T07:54:14;11.13;;;8.30;;
9467;SDS011;4772;52.382;9.752;2023-05-08T07:56:40;9.43;;;8.20;;
9467;SDS011;4772;52.382;9.752;2023-05-08T07:59:06;9.40;;;7.83;;
9467;SDS011;4772;52.382;9.752;2023-05-08T08:01:32;8.43;;;7.53;;
9467;SDS011;4772;52.382;9.752;2023-05-08T08:03:58;9.13;;;8.03;;
9467;SDS011;4772;52.382;9.752;2023-05-08T08:06:24;8.00;;;7.20;;
9467;SDS011;4772;52.382;9.752;2023-05-08T08:08:50;7.63;;;6.93;;
9467;SDS011;4772;52.382;9.752;2023-05-08T08:11:16;8.10;;;7.37;;
9467;SDS011;4772;52.382;9.752;2023-05-08T08:13:42;7.93;;;7.10;;
9467;SDS011;4772;52.382;9.752;2023-05-08T08:16:08;9.57;;;7.20;;
9467;SDS011;4772;52.382;9.752;2023-05-08T08:18:34;7.90;;;7.20;;
9467;SDS011;4772;52.382;9.752;2023-05-08T08:21:03;8.00;;;7.30;;
9467;SDS011;4772;52.382;9.752;2023-05-08T08:23:30;7.67;;;6.97;;
9467;SDS011;4772;52.382;9.752;2023-05-08T08:25:56;8.77;;;7.03;;
9467;SDS011;4772;52.382;9.752;2023-05-08T08:28:22;9.10;;;6.83;;
9467;SDS011;4772;52.382;9.752;2023-05-08T08:30:48;9.17;;;8.00;;
9467;SDS011;4772;52.382;9.752;2023-05-08T08:33:15;7.80;;;7.00;;
9467;SDS011;4772;52.382;9.752;2023-05-08T08:35:41;7.67;;;6.87;;
9467;SDS011;4772;52.382;9.752;2023-05-08T08:38:06;8.33;;;7.03;;
9467;SDS011;4772;52.382;9.752;2023-05-08T08:40:37;7.83;;;6.10;;
9467;SDS011;4772;52.382;9.752;2023-05-08T08:43:03;7.70;;;6.70;;
9467;SDS011;4772;52.382;9.752;2023-05-08T08:45:29;7.93;;;7.13;;
9467;SDS011;4772;52.382;9.752;2023-05-08T08:47:55;8.10;;;6.83;;
9467;SDS011;4772;52.382;9.752;2023-05-08T08:50:26;8.23;;;6.67;;
9467;SDS011;4772;52.382;9.752;2023-05-08T08:55:19;7.67;;;6.97;;
9467;SDS011;4772;52.382;9.752;2023-05-08T09:00:36;7.30;;;6.60;;
9467;SDS011;4772;52.382;9.752;2023-05-08T09:03:04;8.10;;;6.20;;
9467;SDS011;4772;52.382;9.752;2023-05-08T09:05:31;7.28;;;6.35;;
9467;SDS011;4772;52.382;9.752;2023-05-08T09:07:58;7.82;;;6.55;;
9467;SDS011;4772;52.382;9.752;2023-05-08T09:10:24;7.15;;;6.50;;
9467;SDS011;4772;52.382;9.752;2023-05-08T09:12:50;8.07;;;6.35;;
9467;SDS011;4772;52.382;9.752;2023-05-08T09:15:16;8.23;;;6.75;;
9467;SDS011;4772;52.382;9.752;2023-05-08T09:17:42;9.75;;;7.18;;
9467;SDS011;4772;52.382;9.752;2023-05-08T09:20:08;8.10;;;6.68;;
9467;SDS011;4772;52.382;9.752;2023-05-08T09:22:35;7.25;;;6.65;;
9467;SDS011;4772;52.382;9.752;2023-05-08T09:25:01;7.07;;;6.20;;
9467;SDS011;4772;52.382;9.752;2023-05-08T09:27:28;7.35;;;6.70;;
9467;SDS011;4772;52.382;9.752;2023-05-08T09:32:24;9.93;;;7.37;;
9467;SDS011;4772;52.382;9.752;2023-05-08T09:34:53;7.15;;;6.45;;
9467;SDS011;4772;52.382;9.752;2023-05-08T09:37:19;8.17;;;6.80;;
9467;SDS011;4772;52.382;9.752;2023-05-08T09:39:45;7.93;;;6.75;;
9467;SDS011;4772;52.382;9.752;2023-05-08T09:42:12;7.75;;;7.15;;
9467;SDS011;4772;52.382;9.752;2023-05-08T09:44:51;7.45;;;6.55;;
9467;SDS011;4772;52.382;9.752;2023-05-08T09:49:59;7.18;;;6.47;;
9467;SDS011;4772;52.382;9.752;2023-05-08T09:52:26;6.65;;;6.15;;
9467;SDS011;4772;52.382;9.752;2023-05-08T09:55:10;7.53;;;6.68;;
9467;SDS011;4772;52.382;9.752;2023-05-08T09:57:37;7.40;;;6.70;;
9467;SDS011;4772;52.382;9.752;2023-05-08T10:00:05;7.05;;;6.43;;
9467;SDS011;4772;52.382;9.752;2023-05-08T10:02:32;6.32;;;5.78;;
9467;SDS011;4772;52.382;9.752;2023-05-08T10:04:58;6.30;;;5.80;;
9467;SDS011;4772;52.382;9.752;2023-05-08T10:07:32;6.47;;;5.65;;
9467;SDS011;4772;52.382;9.752;2023-05-08T10:10:04;6.13;;;5.53;;
9467;SDS011;4772;52.382;9.752;2023-05-08T10:12:31;8.43;;;5.15;;
9467;SDS011;4772;52.382;9.752;2023-05-08T10:14:57;6.65;;;6.00;;
9467;SDS011;4772;52.382;9.752;2023-05-08T10:20:02;5.82;;;5.15;;
9467;SDS011;4772;52.382;9.752;2023-05-08T10:22:30;5.60;;;5.20;;
9467;SDS011;4772;52.382;9.752;2023-05-08T10:24:57;6.32;;;5.82;;
9467;SDS011;4772;52.382;9.752;2023-05-08T10:27:27;5.22;;;4.57;;
9467;SDS011;4772;52.382;9.752;2023-05-08T10:29:56;6.25;;;5.68;;
9467;SDS011;4772;52.382;9.752;2023-05-08T10:32:25;5.85;;;5.35;;
9467;SDS011;4772;52.382;9.752;2023-05-08T10:34:55;5.97;;;5.47;;
9467;SDS011;4772;52.382;9.752;2023-05-08T10:37:23;6.57;;;5.93;;
9467;SDS011;4772;52.382;9.752;2023-05-08T10:39:49;6.53;;;5.97;;
9467;SDS011;4772;52.382;9.752;2023-05-08T10:42:16;9.77;;;5.90;;
9467;SDS011;4772;52.382;9.752;2023-05-08T10:44:43;6.57;;;5.55;;
9467;SDS011;4772;52.382;9.752;2023-05-08T10:47:11;6.65;;;5.85;;
9467;SDS011;4772;52.382;9.752;2023-05-08T10:49:59;7.78;;;5.88;;
9467;SDS011;4772;52.382;9.752;2023-05-08T10:52:29;6.93;;;5.60;;
9467;SDS011;4772;52.382;9.752;2023-05-08T10:57:23;8.13;;;7.28;;
9467;SDS011;4772;52.382;9.752;2023-05-08T10:59:49;7.95;;;7.25;;
9467;SDS011;4772;52.382;9.752;2023-05-08T11:02:15;8.25;;;7.30;;
9467;SDS011;4772;52.382;9.752;2023-05-08T11:04:41;7.93;;;7.32;;
9467;SDS011;4772;52.382;9.752;2023-05-08T11:07:07;7.57;;;6.88;;
9467;SDS011;4772;52.382;9.752;2023-05-08T11:14:32;7.45;;;6.75;;
9467;SDS011;4772;52.382;9.752;2023-05-08T11:19:25;8.10;;;7.40;;
9467;SDS011;4772;52.382;9.752;2023-05-08T11:24:37;8.38;;;7.10;;
9467;SDS011;4772;52.382;9.752;2023-05-08T11:27:03;7.93;;;7.32;;
9467;SDS011;4772;52.382;9.752;2023-05-08T11:29:29;7.85;;;7.18;;
9467;SDS011;4772;52.382;9.752;2023-05-08T11:31:55;8.68;;;6.80;;
9467;SDS011;4772;52.382;9.752;2023-05-08T11:37:10;6.70;;;6.10;;
9467;SDS011;4772;52.382;9.752;2023-05-08T11:39:36;7.30;;;6.70;;
9467;SDS011;4772;52.382;9.752;2023-05-08T11:44:47;7.82;;;6.90;;
9467;SDS011;4772;52.382;9.752;2023-05-08T11:47:15;9.25;;;6.85;;
9467;SDS011;4772;52.382;9.752;2023-05-08T11:49:43;8.90;;;7.80;;
9467;SDS011;4772;52.382;9.752;2023-05-08T11:52:09;8.48;;;7.80;;
9467;SDS011;4772;52.382;9.752;2023-05-08T11:54:35;8.25;;;7.53;;
9467;SDS011;4772;52.382;9.752;2023-05-08T11:57:01;9.25;;;7.35;;
9467;SDS011;4772;52.382;9.752;2023-05-08T11:59:27;9.27;;;8.40;;
9467;SDS011;4772;52.382;9.752;2023-05-08T12:01:53;8.05;;;7.35;;
9467;SDS011;4772;52.382;9.752;2023-05-08T12:04:19;9.60;;;7.72;;
9467;SDS011;4772;52.382;9.752;2023-05-08T12:06:45;8.23;;;7.55;;
9467;SDS011;4772;52.382;9.752;2023-05-08T12:09:13;9.25;;;8.43;;
9467;SDS011;4772;52.382;9.752;2023-05-08T12:11:39;9.43;;;8.48;;
9467;SDS011;4772;52.382;9.752;2023-05-08T12:14:07;9.98;;;7.47;;
9467;SDS011;4772;52.382;9.752;2023-05-08T12:16:36;9.30;;;8.50;;
9467;SDS011;4772;52.382;9.752;2023-05-08T12:19:03;10.05;;;9.02;;
9467;SDS011;4772;52.382;9.752;2023-05-08T12:21:29;9.18;;;8.48;;
9467;SDS011;4772;52.382;9.752;2023-05-08T12:23:56;8.68;;;7.88;;
9467;SDS011;4772;52.382;9.752;2023-05-08T12:26:22;8.38;;;7.68;;
9467;SDS011;4772;52.382;9.752;2023-05-08T12:28:54;8.45;;;7.75;;
9467;SDS011;4772;52.382;9.752;2023-05-08T12:31:21;10.88;;;7.75;;
9467;SDS011;4772;52.382;9.752;2023-05-08T12:33:47;8.60;;;7.90;;
9467;SDS011;4772;52.382;9.752;2023-05-08T12:36:13;8.00;;;7.18;;
9467;SDS011;4772;52.382;9.752;2023-05-08T12:38:39;8.07;;;7.30;;
9467;SDS011;4772;52.382;9.752;2023-05-08T12:41:05;8.52;;;7.82;;
9467;SDS011;4772;52.382;9.752;2023-05-08T12:43:34;7.68;;;6.97;;
9467;SDS011;4772;52.382;9.752;2023-05-08T12:46:01;8.07;;;7.38;;
9467;SDS011;4772;52.382;9.752;2023-05-08T12:48:27;7.72;;;7.13;;
9467;SDS011;4772;52.382;9.752;2023-05-08T12:50:53;7.72;;;7.03;;
9467;SDS011;4772;52.382;9.752;2023-05-08T12:53:20;7.40;;;6.32;;
9467;SDS011;4772;52.382;9.752;2023-05-08T12:55:53;8.43;;;7.55;;
9467;SDS011;4772;52.382;9.752;2023-05-08T12:58:22;8.05;;;7.40;;
9467;SDS011;4772;52.382;9.752;2023-05-08T13:00:50;7.78;;;7.05;;
9467;SDS011;4772;52.382;9.752;2023-05-08T13:03:26;6.18;;;5.57;;
9467;SDS011;4772;52.382;9.752;2023-05-08T13:05:53;7.03;;;6.32;;
9467;SDS011;4772;52.382;9.752;2023-05-08T13:08:27;7.50;;;6.40;;
9467;SDS011;4772;52.382;9.752;2023-05-08T13:10:54;7.53;;;5.45;;
9467;SDS011;4772;52.382;9.752;2023-05-08T13:13:21;7.15;;;6.53;;
9467;SDS011;4772;52.382;9.752;2023-05-08T13:15:48;6.65;;;5.93;;
9467;SDS011;4772;52.382;9.752;2023-05-08T13:18:14;7.60;;;6.18;;
9467;SDS011;4772;52.382;9.752;2023-05-08T13:20:41;6.80;;;6.20;;
9467;SDS011;4772;52.382;9.752;2023-05-08T13:23:07;6.55;;;5.95;;
9467;SDS011;4772;52.382;9.752;2023-05-08T13:25:34;6.18;;;5.30;;
9467;SDS011;4772;52.382;9.752;2023-05-08T13:28:00;8.35;;;5.65;;
9467;SDS011;4772;52.382;9.752;2023-05-08T13:30:26;7.63;;;6.20;;
9467;SDS011;4772;52.382;9.752;2023-05-08T13:32:52;7.47;;;6.10;;
9467;SDS011;4772;52.382;9.752;2023-05-08T13:35:19;6.80;;;5.85;;
9467;SDS011;4772;52.382;9.752;2023-05-08T13:37:45;6.35;;;5.85;;
9467;SDS011;4772;52.382;9.752;2023-05-08T13:40:12;6.03;;;5.38;;
9467;SDS011;4772;52.382;9.752;2023-05-08T13:42:38;6.55;;;6.07;;
9467;SDS011;4772;52.382;9.752;2023-05-08T13:45:04;6.05;;;5.13;;
9467;SDS011;4772;52.382;9.752;2023-05-08T13:47:30;6.22;;;5.15;;
9467;SDS011;4772;52.382;9.752;2023-05-08T13:49:56;6.07;;;5.13;;
9467;SDS011;4772;52.382;9.752;2023-05-08T13:52:22;5.53;;;5.03;;
9467;SDS011;4772;52.382;9.752;2023-05-08T13:54:48;6.15;;;4.88;;
9467;SDS011;4772;52.382;9.752;2023-05-08T13:57:14;6.80;;;4.68;;
9467;SDS011;4772;52.382;9.752;2023-05-08T13:59:40;5.60;;;5.00;;
9467;SDS011;4772;52.382;9.752;2023-05-08T14:02:06;5.22;;;4.75;;
9467;SDS011;4772;52.382;9.752;2023-05-08T14:04:32;5.30;;;4.90;;
9467;SDS011;4772;52.382;9.752;2023-05-08T14:06:58;5.22;;;4.68;;
9467;SDS011;4772;52.382;9.752;2023-05-08T14:09:24;7.20;;;4.50;;
9467;SDS011;4772;52.382;9.752;2023-05-08T14:11:50;5.88;;;5.05;;
9467;SDS011;4772;52.382;9.752;2023-05-08T14:14:17;6.07;;;5.22;;
9467;SDS011;4772;52.382;9.752;2023-05-08T14:16:43;5.05;;;4.65;;
9467;SDS011;4772;52.382;9.752;2023-05-08T14:19:09;5.47;;;4.97;;
9467;SDS011;4772;52.382;9.752;2023-05-08T14:21:35;6.20;;;5.50;;
9467;SDS011;4772;52.382;9.752;2023-05-08T14:24:01;5.40;;;4.88;;
9467;SDS011;4772;52.382;9.752;2023-05-08T14:26:27;7.47;;;5.72;;
9467;SDS011;4772;52.382;9.752;2023-05-08T14:28:53;7.10;;;4.80;;
9467;SDS011;4772;52.382;9.752;2023-05-08T14:31:19;10.38;;;5.18;;
9467;SDS011;4772;52.382;9.752;2023-05-08T14:33:45;5.88;;;5.00;;
9467;SDS011;4772;52.382;9.752;2023-05-08T14:36:11;6.03;;;5.10;;
9467;SDS011;4772;52.382;9.752;2023-05-08T14:38:37;5.97;;;5.38;;
9467;SDS011;4772;52.382;9.752;2023-05-08T14:41:03;5.28;;;4.70;;
9467;SDS011;4772;52.382;9.752;2023-05-08T14:43:29;6.05;;;5.22;;
9467;SDS011;4772;52.382;9.752;2023-05-08T14:45:55;5.20;;;4.60;;
9467;SDS011;4772;52.382;9.752;2023-05-08T14:48:21;6.25;;;5.05;;
9467;SDS011;4772;52.382;9.752;2023-05-08T14:50:48;5.27;;;4.80;;
9467;SDS011;4772;52.382;9.752;2023-05-08T14:53:13;5.25;;;4.85;;
9467;SDS011;4772;52.382;9.752;2023-05-08T14:55:39;5.73;;;4.33;;
9467;SDS011;4772;52.382;9.752;2023-05-08T14:58:05;5.40;;;4.90;;
9467;SDS011;4772;52.382;9.752;2023-05-08T15:00:31;7.07;;;5.20;;
9467;SDS011;4772;52.382;9.752;2023-05-08T15:02:57;6.53;;;5.47;;
9467;SDS011;4772;52.382;9.752;2023-05-08T15:05:23;6.30;;;5.70;;
9467;SDS011;4772;52.382;9.752;2023-05-08T15:07:49;13.10;;;5.60;;
9467;SDS011;4772;52.382;9.752;2023-05-08T15:10:15;7.27;;;5.00;;
9467;SDS011;4772;52.382;9.752;2023-05-08T15:12:41;5.73;;;5.10;;
9467;SDS011;4772;52.382;9.752;2023-05-08T15:15:07;7.63;;;5.63;;
9467;SDS011;4772;52.382;9.752;2023-05-08T15:17:33;5.80;;;5.20;;
9467;SDS011;4772;52.382;9.752;2023-05-08T15:20:00;8.17;;;4.83;;
9467;SDS011;4772;52.382;9.752;2023-05-08T15:22:26;5.07;;;4.57;;
9467;SDS011;4772;52.382;9.752;2023-05-08T15:24:52;5.83;;;5.20;;
9467;SDS011;4772;52.382;9.752;2023-05-08T15:27:18;6.03;;;5.43;;
9467;SDS011;4772;52.382;9.752;2023-05-08T15:29:44;5.87;;;5.27;;
9467;SDS011;4772;52.382;9.752;2023-05-08T15:32:11;5.80;;;5.30;;
9467;SDS011;4772;52.382;9.752;2023-05-08T15:34:37;7.23;;;5.10;;
9467;SDS011;4772;52.382;9.752;2023-05-08T15:37:03;5.50;;;5.00;;
9467;SDS011;4772;52.382;9.752;2023-05-08T15:39:29;7.57;;;4.60;;
9467;SDS011;4772;52.382;9.752;2023-05-08T15:41:55;6.00;;;4.40;;
9467;SDS011;4772;52.382;9.752;2023-05-08T15:44:21;5.80;;;5.20;;
9467;SDS011;4772;52.382;9.752;2023-05-08T15:46:47;7.33;;;5.40;;
9467;SDS011;4772;52.382;9.752;2023-05-08T15:49:13;5.70;;;5.20;;
9467;SDS011;4772;52.382;9.752;2023-05-08T15:51:39;5.53;;;4.90;;
9467;SDS011;4772;52.382;9.752;2023-05-08T15:54:05;5.00;;;4.60;;
9467;SDS011;4772;52.382;9.752;2023-05-08T15:56:33;5.97;;;4.17;;
9467;SDS011;4772;52.382;9.752;2023-05-08T15:58:59;4.93;;;4.30;;
9467;SDS011;4772;52.382;9.752;2023-05-08T16:01:24;7.10;;;4.60;;
9467;SDS011;4772;52.382;9.752;2023-05-08T16:03:50;4.60;;;4.20;;
9467;SDS011;4772;52.382;9.752;2023-05-08T16:06:16;7.33;;;4.07;;
9467;SDS011;4772;52.382;9.752;2023-05-08T16:08:42;7.60;;;4.20;;